Time;durP1;ratioP1;P1;durP2;ratioP2;P2;SDS_P1;SDS_P2;PMS_P1;PMS_P2;Temp;Humidity;BMP_temperature;BMP_pressure;BME280_temperature;BME280_humidity;BME280_pressure;Samples;Min_cycle;Max_cycle;Signal;HPM_P1;HPM_P2
2023/04/29 00:09:52;;;;;;;34.92;20.67;;;6.30;99.90;;;;;;25968620;22;20011;-52
2023/04/29 00:19:53;;;;;;;33.38;18.17;;;6.50;99.90;;;;;;25968333;22;19999;-52
2023/04/29 00:29:56;;;;;;;28.50;15.93;;;7.20;99.90;;;;;;25967971;22;20442;-52
2023/04/29 00:39:57;;;;;;;28.45;16.58;;;7.60;99.90;;;;;;25967976;22;20019;-61
2023/04/29 00:49:59;;;;;;;30.30;17.63;;;7.60;99.90;;;;;;25966939;22;20529;-50
2023/04/29 01:00:02;;;;;;;26.63;16.10;;;7.40;99.90;;;;;;25939500;22;20674;-52
2023/04/29 01:10:34;;;;;;;27.83;18.08;;;7.30;99.90;;;;;;25939036;22;20008;-52
2023/04/29 01:20:36;;;;;;;33.72;18.52;;;7.40;99.90;;;;;;25453737;23;20009;-50
2023/04/29 01:31:37;;;;;;;35.47;18.00;;;7.50;99.90;;;;;;25453327;23;20033;-51
2023/04/29 01:41:57;;;;;;;32.72;17.73;;;7.40;99.90;;;;;;25255899;23;20022;-52
2023/04/29 01:52:04;;;;;;;28.17;17.58;;;7.20;99.90;;;;;;25435271;23;20067;-61
2023/04/29 02:02:07;;;;;;;32.55;19.98;;;7.00;99.90;;;;;;25699746;23;20004;-52
2023/04/29 02:12:13;;;;;;;33.60;19.65;;;6.90;99.90;;;;;;25934515;22;20382;-50
2023/04/29 02:22:15;;;;;;;34.55;20.33;;;7.00;99.90;;;;;;25936829;22;20378;-49
2023/04/29 02:32:19;;;;;;;29.35;18.05;;;7.40;99.90;;;;;;25936945;22;20007;-52
2023/04/29 02:42:21;;;;;;;27.42;17.58;;;7.70;99.90;;;;;;25936329;22;20015;-53
2023/04/29 02:52:22;;;;;;;29.83;19.13;;;7.80;99.90;;;;;;25936477;22;20500;-52
2023/04/29 03:02:24;;;;;;;28.52;19.20;;;7.70;99.90;;;;;;25936165;22;20034;-52
2023/04/29 03:12:31;;;;;;;31.52;18.00;;;7.70;99.90;;;;;;25985421;22;20065;-48
2023/04/29 03:22:33;;;;;;;31.02;17.92;;;7.70;99.90;;;;;;25970376;22;20007;-52
2023/04/29 03:32:35;;;;;;;25.40;16.65;;;7.60;99.90;;;;;;25943154;22;20369;-52
2023/04/29 03:42:38;;;;;;;28.35;17.23;;;7.40;99.90;;;;;;25942189;22;20018;-50
2023/04/29 03:52:40;;;;;;;29.27;18.23;;;7.20;99.90;;;;;;25968552;22;20022;-52
2023/04/29 04:02:46;;;;;;;32.88;19.58;;;7.10;99.90;;;;;;26011512;22;20493;-51
2023/04/29 04:12:48;;;;;;;30.90;18.17;;;7.20;99.90;;;;;;25941812;22;20004;-53
2023/04/29 04:22:50;;;;;;;30.98;19.23;;;7.50;99.90;;;;;;25967528;22;20069;-49
2023/04/29 04:33:00;;;;;;;30.50;18.75;;;7.40;99.90;;;;;;25983062;22;20000;-52
2023/04/29 04:43:02;;;;;;;35.92;18.33;;;7.50;99.90;;;;;;25968098;22;20065;-52
2023/04/29 04:53:05;;;;;;;29.98;20.05;;;7.60;99.90;;;;;;25939891;22;20007;-50
2023/04/29 05:03:26;;;;;;;28.52;18.52;;;7.80;99.90;;;;;;25981294;22;20030;-52
2023/04/29 05:13:29;;;;;;;27.05;17.55;;;8.10;99.90;;;;;;25938978;22;20377;-61
2023/04/29 05:23:31;;;;;;;26.65;16.85;;;8.50;99.90;;;;;;25938470;22;20004;-61
2023/04/29 05:33:33;;;;;;;25.85;16.10;;;8.70;99.90;;;;;;25938088;22;20027;-61
2023/04/29 05:43:35;;;;;;;25.95;17.35;;;8.90;99.90;;;;;;25964884;22;20008;-50
2023/04/29 05:53:37;;;;;;;22.90;15.80;;;9.20;99.90;;;;;;25936492;22;20007;-62
2023/04/29 06:03:40;;;;;;;21.80;14.55;;;9.50;99.90;;;;;;25964352;22;20073;-62
2023/04/29 06:14:11;;;;;;;23.75;15.52;;;9.70;99.90;;;;;;25936949;22;20081;-63
2023/04/29 06:24:13;;;;;;;20.95;14.30;;;10.10;99.90;;;;;;25964158;22;20393;-53
2023/04/29 06:34:15;;;;;;;25.13;14.88;;;10.70;99.90;;;;;;25935865;22;20003;-53
2023/04/29 06:44:43;;;;;;;19.48;14.48;;;10.90;99.90;;;;;;25525796;23;20024;-50
2023/04/29 06:55:04;;;;;;;17.95;12.85;;;10.90;99.90;;;;;;25590822;22;20103;-62
2023/04/29 07:05:06;;;;;;;21.17;13.55;;;11.60;99.90;;;;;;25582187;23;20064;-49
2023/04/29 07:15:09;;;;;;;16.60;13.05;;;12.30;99.90;;;;;;25675703;22;20377;-52
2023/04/29 07:25:10;;;;;;;17.13;12.98;;;12.60;99.90;;;;;;25943318;22;20011;-62
2023/04/29 07:35:12;;;;;;;19.33;12.27;;;13.10;99.90;;;;;;25969229;22;20379;-61
2023/04/29 07:45:14;;;;;;;17.05;12.80;;;13.90;99.90;;;;;;25969708;22;20512;-48
2023/04/29 07:55:16;;;;;;;15.23;12.27;;;14.60;99.90;;;;;;25942334;22;20000;-62
2023/04/29 08:05:20;;;;;;;15.48;11.88;;;14.70;99.90;;;;;;25968526;22;20085;-62
2023/04/29 08:15:22;;;;;;;15.32;11.20;;;14.60;99.90;;;;;;25916142;22;20392;-61
2023/04/29 08:25:25;;;;;;;19.05;12.35;;;14.50;99.90;;;;;;25940808;22;20316;-49
2023/04/29 08:35:27;;;;;;;15.63;11.38;;;14.30;99.90;;;;;;25967346;22;20476;-62
2023/04/29 08:45:31;;;;;;;13.82;11.32;;;14.10;99.90;;;;;;25982566;22;20381;-61
2023/04/29 08:55:41;;;;;;;15.43;11.15;;;14.50;99.90;;;;;;25966394;22;20497;-51
2023/04/29 09:05:46;;;;;;;16.42;12.38;;;15.10;99.90;;;;;;26006831;22;20000;-51
2023/04/29 09:15:47;;;;;;;15.60;12.40;;;15.20;99.90;;;;;;25965160;22;20438;-50
2023/04/29 09:25:56;;;;;;;16.98;11.75;;;15.90;99.90;;;;;;25965509;22;20003;-52
2023/04/29 09:35:58;;;;;;;14.77;11.77;;;16.80;99.90;;;;;;25965201;22;20011;-52
2023/04/29 09:46:00;;;;;;;14.65;11.40;;;17.90;99.90;;;;;;25964282;22;20012;-52
2023/04/29 09:56:02;;;;;;;16.83;12.52;;;18.30;99.90;;;;;;25965080;22;20049;-62
2023/04/29 10:06:06;;;;;;;16.70;12.35;;;16.90;99.90;;;;;;25963531;22;20008;-62
2023/04/29 10:16:31;;;;;;;13.80;11.90;;;16.50;99.90;;;;;;25966778;22;20415;-62
2023/04/29 10:26:36;;;;;;;18.45;13.50;;;16.20;99.90;;;;;;26015422;22;20008;-62
2023/04/29 10:36:38;;;;;;;16.13;12.98;;;16.10;99.90;;;;;;25972019;22;20000;-62
2023/04/29 10:46:40;;;;;;;19.33;15.55;;;16.00;99.90;;;;;;25944862;22;20008;-62
2023/04/29 10:56:51;;;;;;;20.02;14.13;;;17.00;99.90;;;;;;25971954;22;20003;-61
2023/04/29 11:06:55;;;;;;;20.08;15.38;;;18.50;99.90;;;;;;25986652;22;20430;-51
2023/04/29 11:17:03;;;;;;;17.92;14.93;;;19.80;99.90;;;;;;25970744;22;20073;-61
2023/04/29 11:27:05;;;;;;;16.07;13.87;;;20.30;99.90;;;;;;26012739;22;20004;-50
2023/04/29 11:37:06;;;;;;;17.17;14.57;;;21.10;99.90;;;;;;25970180;22;20004;-53
2023/04/29 11:47:08;;;;;;;19.55;14.40;;;20.50;99.90;;;;;;25969260;22;20016;-62
2023/04/29 11:57:10;;;;;;;17.02;14.43;;;20.70;99.90;;;;;;25969554;22;20496;-52
2023/04/29 12:07:17;;;;;;;19.48;15.32;;;19.90;99.90;;;;;;25967564;22;20066;-55
2023/04/29 12:17:20;;;;;;;20.50;16.25;;;18.10;99.90;;;;;;26010561;22;20007;-61
2023/04/29 12:27:21;;;;;;;19.30;15.55;;;16.70;99.90;;;;;;25968350;22;20012;-61
2023/04/29 12:37:23;;;;;;;19.95;16.08;;;16.00;99.90;;;;;;25967304;22;20319;-61
2023/04/29 12:47:35;;;;;;;18.30;14.65;;;15.80;99.90;;;;;;25967054;22;20027;-61
2023/04/29 12:57:38;;;;;;;22.27;15.73;;;16.00;99.90;;;;;;26009383;22;20003;-62
2023/04/29 13:07:40;;;;;;;18.58;16.10;;;16.50;99.90;;;;;;25966690;22;20496;-63
2023/04/29 13:17:42;;;;;;;23.63;16.95;;;16.90;99.90;;;;;;25966013;22;20014;-62
2023/04/29 13:27:43;;;;;;;20.10;15.80;;;17.10;99.90;;;;;;25965788;22;20027;-63
2023/04/29 13:37:46;;;;;;;21.17;16.33;;;17.40;99.90;;;;;;25937512;22;20334;-54
2023/04/29 13:47:48;;;;;;;19.55;15.30;;;17.30;99.90;;;;;;25937108;22;20077;-62
2023/04/29 13:57:50;;;;;;;22.15;17.08;;;17.20;99.90;;;;;;25964471;22;20323;-62
2023/04/29 14:07:53;;;;;;;21.95;18.00;;;17.20;99.90;;;;;;25963414;22;20098;-54
2023/04/29 14:17:55;;;;;;;21.90;17.05;;;16.60;99.90;;;;;;25963852;22;20069;-55
2023/04/29 14:27:57;;;;;;;24.02;19.65;;;15.80;99.90;;;;;;25963933;22;20004;-53
2023/04/29 14:37:58;;;;;;;27.48;21.10;;;14.80;99.90;;;;;;25963962;22;20385;-52
2023/04/29 14:48:00;;;;;;;29.20;20.08;;;14.00;99.90;;;;;;25963466;22;20011;-60
2023/04/29 14:58:03;;;;;;;28.90;22.98;;;13.20;99.90;;;;;;25963577;22;20004;-60
2023/04/29 15:08:05;;;;;;;31.52;23.30;;;12.80;99.90;;;;;;25970591;22;20016;-61
2023/04/29 15:18:07;;;;;;;29.45;23.70;;;12.60;99.90;;;;;;25970743;22;20008;-54
2023/04/29 15:28:09;;;;;;;31.88;24.27;;;12.50;99.90;;;;;;25970508;22;20015;-61
2023/04/29 15:38:11;;;;;;;33.55;25.35;;;12.60;99.90;;;;;;25969883;22;20007;-61
2023/04/29 15:48:12;;;;;;;31.30;23.92;;;12.50;99.90;;;;;;25969318;22;20023;-61
2023/04/29 15:58:14;;;;;;;37.45;26.05;;;12.50;99.90;;;;;;25969135;22;20038;-61
2023/04/29 16:08:16;;;;;;;35.00;25.77;;;12.50;99.90;;;;;;25940449;22;19999;-61
2023/04/29 16:18:18;;;;;;;37.65;27.38;;;12.70;99.90;;;;;;25967741;22;20007;-62
2023/04/29 16:28:20;;;;;;;31.58;24.65;;;12.30;99.90;;;;;;25968190;22;20000;-61
2023/04/29 16:38:21;;;;;;;33.78;25.40;;;12.10;99.90;;;;;;25967122;22;20086;-61
2023/04/29 16:48:23;;;;;;;34.03;25.95;;;12.00;99.90;;;;;;25966521;22;20015;-54
2023/04/29 16:58:25;;;;;;;31.63;24.35;;;12.00;99.90;;;;;;25968359;22;20012;-61
2023/04/29 17:08:26;;;;;;;32.33;25.05;;;11.90;99.90;;;;;;25966241;22;20003;-51
2023/04/29 17:18:28;;;;;;;34.20;27.23;;;11.60;99.90;;;;;;25965936;22;20342;-61
2023/04/29 17:28:30;;;;;;;40.35;28.27;;;11.30;99.90;;;;;;25965450;22;20117;-52
2023/04/29 17:38:32;;;;;;;32.00;25.20;;;11.20;99.90;;;;;;25964138;22;20370;-54
2023/04/29 17:48:33;;;;;;;43.75;31.88;;;10.90;99.90;;;;;;25937825;22;20430;-51
2023/04/29 17:58:35;;;;;;;42.63;31.60;;;10.70;99.90;;;;;;25964521;22;20065;-55
2023/04/29 18:08:37;;;;;;;47.95;35.00;;;10.50;99.90;;;;;;25964419;22;20473;-52
2023/04/29 18:18:38;;;;;;;80.85;42.17;;;10.50;99.90;;;;;;25963772;22;20058;-54
2023/04/29 18:28:40;;;;;;;71.35;44.17;;;10.10;99.90;;;;;;25935723;22;20016;-54
2023/04/29 18:38:42;;;;;;;67.47;42.17;;;9.50;99.90;;;;;;25965653;22;20007;-52
2023/04/29 18:48:44;;;;;;;68.22;42.65;;;9.00;99.90;;;;;;25970053;22;20284;-55
2023/04/29 18:58:45;;;;;;;58.90;38.97;;;8.60;99.90;;;;;;25969690;22;20011;-54
2023/04/29 19:08:47;;;;;;;62.55;40.67;;;8.10;99.90;;;;;;25968495;22;20014;-55
2023/04/29 19:18:49;;;;;;;56.25;37.65;;;7.80;99.90;;;;;;25942081;22;20004;-53
2023/04/29 19:28:50;;;;;;;64.28;41.03;;;7.60;99.90;;;;;;25969013;22;20007;-59
2023/04/29 19:38:52;;;;;;;59.95;38.30;;;7.30;99.90;;;;;;25938798;22;20053;-59
2023/04/29 19:48:54;;;;;;;63.13;39.58;;;7.20;99.90;;;;;;25968011;22;20018;-54
2023/04/29 19:58:56;;;;;;;66.45;41.15;;;7.00;99.90;;;;;;25968581;22;20003;-53
2023/04/29 20:08:58;;;;;;;63.78;40.03;;;7.00;99.90;;;;;;25941395;22;20007;-52
2023/04/29 20:19:00;;;;;;;61.80;38.47;;;6.90;99.90;;;;;;25940922;22;20003;-54
2023/04/29 20:29:02;;;;;;;70.68;43.65;;;6.80;99.90;;;;;;25967000;22;20026;-50
2023/04/29 20:39:05;;;;;;;75.90;45.50;;;6.70;99.90;;;;;;25966803;22;20004;-59
2023/04/29 20:49:07;;;;;;;76.88;46.10;;;6.60;99.90;;;;;;25965324;22;20024;-59
2023/04/29 20:59:09;;;;;;;72.13;44.22;;;6.50;99.90;;;;;;25964812;22;20006;-59
2023/04/29 21:09:10;;;;;;;90.82;50.10;;;6.50;99.90;;;;;;25964633;22;20008;-61
2023/04/29 21:19:12;;;;;;;76.47;44.90;;;6.50;99.90;;;;;;25964395;22;20004;-59
2023/04/29 21:29:13;;;;;;;76.15;44.45;;;6.60;99.90;;;;;;25963421;22;20011;-59
2023/04/29 21:39:15;;;;;;;87.00;49.53;;;6.90;99.90;;;;;;25963998;22;20007;-53
2023/04/29 21:49:20;;;;;;;75.68;45.65;;;7.20;99.90;;;;;;25935481;22;20015;-60
2023/04/29 21:59:21;;;;;;;70.97;41.13;;;7.50;99.90;;;;;;25963860;22;20000;-49
2023/04/29 22:09:23;;;;;;;67.20;40.78;;;7.70;99.90;;;;;;25936836;22;20007;-51
2023/04/29 22:19:28;;;;;;;64.95;40.28;;;8.00;99.90;;;;;;25963823;22;20049;-60
2023/04/29 22:29:30;;;;;;;53.83;35.45;;;8.00;99.90;;;;;;25936329;22;20011;-60
2023/04/29 22:39:32;;;;;;;56.92;35.97;;;8.00;99.90;;;;;;25963450;22;20023;-60
2023/04/29 22:49:34;;;;;;;57.30;36.35;;;8.10;99.90;;;;;;26005784;22;20004;-53
2023/04/29 22:59:35;;;;;;;51.72;35.35;;;8.20;99.90;;;;;;25936407;22;20053;-51
2023/04/29 23:09:37;;;;;;;48.47;33.35;;;8.60;99.90;;;;;;25963139;22;20512;-60
2023/04/29 23:19:39;;;;;;;42.88;31.25;;;8.90;99.90;;;;;;25962792;22;20003;-52
2023/04/29 23:29:40;;;;;;;35.15;26.15;;;9.00;99.90;;;;;;25943053;22;20125;-60
2023/04/29 23:39:42;;;;;;;43.28;30.38;;;8.90;99.90;;;;;;25969778;22;20335;-60
2023/04/29 23:49:44;;;;;;;44.63;29.98;;;8.60;99.90;;;;;;25969731;22;20020;-54
2023/04/29 23:59:45;;;;;;;54.80;35.20;;;8.30;99.90;;;;;;25969312;22;20505;-60
